sensor_id;sensor_type;location;lat;lon;timestamp;noise_LAeq;noise_LA_min;noise_LA_max;noise_LA01;noise_LA95
58303;Laerm;44109;52.398;7.024;2022-12-11T00:00:13;41.14;31.20;55.02;;
58303;Laerm;44109;52.398;7.024;2022-12-11T00:02:41;40.62;31.50;55.05;;
58303;Laerm;44109;52.398;7.024;2022-12-11T00:05:09;40.72;31.18;54.96;;
58303;Laerm;44109;52.398;7.024;2022-12-11T00:07:37;40.02;31.01;54.96;;
58303;Laerm;44109;52.398;7.024;2022-12-11T00:10:06;40.74;31.15;55.64;;
58303;Laerm;44109;52.398;7.024;2022-12-11T00:12:34;40.75;31.09;55.92;;
58303;Laerm;44109;52.398;7.024;2022-12-11T00:15:04;40.37;31.47;54.91;;
58303;Laerm;44109;52.398;7.024;2022-12-11T00:17:32;40.78;31.62;61.82;;
58303;Laerm;44109;52.398;7.024;2022-12-11T00:19:59;40.90;31.48;55.69;;
58303;Laerm;44109;52.398;7.024;2022-12-11T00:22:29;40.46;31.22;55.08;;
58303;Laerm;44109;52.398;7.024;2022-12-11T00:24:56;40.45;31.07;54.91;;
58303;Laerm;44109;52.398;7.024;2022-12-11T00:27:24;40.16;31.20;56.06;;
58303;Laerm;44109;52.398;7.024;2022-12-11T00:29:52;40.07;31.07;54.97;;
58303;Laerm;44109;52.398;7.024;2022-12-11T00:32:21;40.23;30.91;55.33;;
58303;Laerm;44109;52.398;7.024;2022-12-11T00:34:48;40.31;31.23;55.84;;
58303;Laerm;44109;52.398;7.024;2022-12-11T00:37:16;40.03;31.03;55.64;;
58303;Laerm;44109;52.398;7.024;2022-12-11T00:39:44;39.85;30.94;55.13;;
58303;Laerm;44109;52.398;7.024;2022-12-11T00:42:12;40.10;31.00;55.91;;
58303;Laerm;44109;52.398;7.024;2022-12-11T00:44:39;40.24;31.06;55.85;;
58303;Laerm;44109;52.398;7.024;2022-12-11T00:47:07;40.17;30.98;55.07;;
58303;Laerm;44109;52.398;7.024;2022-12-11T00:49:36;40.12;31.35;54.96;;
58303;Laerm;44109;52.398;7.024;2022-12-11T00:52:03;40.21;31.10;55.47;;
58303;Laerm;44109;52.398;7.024;2022-12-11T00:54:32;40.02;31.04;54.83;;
58303;Laerm;44109;52.398;7.024;2022-12-11T00:57:00;40.07;30.99;55.78;;
58303;Laerm;44109;52.398;7.024;2022-12-11T00:59:28;40.39;30.77;55.79;;
58303;Laerm;44109;52.398;7.024;2022-12-11T01:01:55;40.06;31.00;55.71;;
58303;Laerm;44109;52.398;7.024;2022-12-11T01:06:55;40.73;31.38;55.62;;
58303;Laerm;44109;52.398;7.024;2022-12-11T01:09:22;39.85;31.09;54.60;;
58303;Laerm;44109;52.398;7.024;2022-12-11T01:12:16;39.52;31.19;55.86;;
58303;Laerm;44109;52.398;7.024;2022-12-11T01:14:43;39.99;31.05;54.90;;
58303;Laerm;44109;52.398;7.024;2022-12-11T01:17:11;40.62;31.07;65.24;;
58303;Laerm;44109;52.398;7.024;2022-12-11T01:19:38;39.99;30.86;55.64;;
58303;Laerm;44109;52.398;7.024;2022-12-11T01:22:07;39.85;30.69;55.13;;
58303;Laerm;44109;52.398;7.024;2022-12-11T01:24:35;40.04;30.90;55.79;;
58303;Laerm;44109;52.398;7.024;2022-12-11T01:27:03;40.09;30.84;57.21;;
58303;Laerm;44109;52.398;7.024;2022-12-11T01:29:31;40.32;31.05;54.77;;
58303;Laerm;44109;52.398;7.024;2022-12-11T01:31:58;40.41;31.49;54.90;;
58303;Laerm;44109;52.398;7.024;2022-12-11T01:34:28;40.89;31.80;55.24;;
58303;Laerm;44109;52.398;7.024;2022-12-11T01:36:56;40.07;30.83;55.44;;
58303;Laerm;44109;52.398;7.024;2022-12-11T01:39:24;40.10;30.94;55.67;;
58303;Laerm;44109;52.398;7.024;2022-12-11T01:41:56;40.20;31.35;55.83;;
58303;Laerm;44109;52.398;7.024;2022-12-11T01:47:43;39.60;31.00;56.03;;
58303;Laerm;44109;52.398;7.024;2022-12-11T01:50:11;39.95;31.07;55.53;;
58303;Laerm;44109;52.398;7.024;2022-12-11T01:52:41;40.47;31.01;54.71;;
58303;Laerm;44109;52.398;7.024;2022-12-11T01:55:11;39.91;30.96;55.66;;
58303;Laerm;44109;52.398;7.024;2022-12-11T01:57:42;40.05;31.02;55.73;;
58303;Laerm;44109;52.398;7.024;2022-12-11T02:00:12;39.98;30.95;54.92;;
58303;Laerm;44109;52.398;7.024;2022-12-11T02:02:40;39.88;30.81;55.78;;
58303;Laerm;44109;52.398;7.024;2022-12-11T02:05:08;39.79;30.59;55.12;;
58303;Laerm;44109;52.398;7.024;2022-12-11T02:07:43;39.99;30.99;55.12;;
58303;Laerm;44109;52.398;7.024;2022-12-11T02:10:13;39.79;30.83;54.60;;
58303;Laerm;44109;52.398;7.024;2022-12-11T02:12:53;39.45;30.54;55.55;;
58303;Laerm;44109;52.398;7.024;2022-12-11T02:15:30;39.54;30.51;55.64;;
58303;Laerm;44109;52.398;7.024;2022-12-11T02:18:13;39.48;30.76;55.58;;
58303;Laerm;44109;52.398;7.024;2022-12-11T02:20:54;39.43;30.66;54.58;;
58303;Laerm;44109;52.398;7.024;2022-12-11T02:26:46;38.84;30.86;55.65;;
58303;Laerm;44109;52.398;7.024;2022-12-11T02:29:22;39.19;30.95;55.64;;
58303;Laerm;44109;52.398;7.024;2022-12-11T02:31:57;39.60;30.61;55.12;;
58303;Laerm;44109;52.398;7.024;2022-12-11T02:34:33;40.25;30.75;55.06;;
58303;Laerm;44109;52.398;7.024;2022-12-11T02:37:08;40.62;30.94;55.65;;
58303;Laerm;44109;52.398;7.024;2022-12-11T02:39:42;40.45;31.05;54.68;;
58303;Laerm;44109;52.398;7.024;2022-12-11T02:42:13;39.85;30.92;54.61;;
58303;Laerm;44109;52.398;7.024;2022-12-11T02:44:44;40.52;31.03;54.68;;
58303;Laerm;44109;52.398;7.024;2022-12-11T02:47:16;39.98;30.76;54.55;;
58303;Laerm;44109;52.398;7.024;2022-12-11T02:49:49;40.30;30.76;55.63;;
58303;Laerm;44109;52.398;7.024;2022-12-11T02:52:21;40.55;31.00;54.55;;
58303;Laerm;44109;52.398;7.024;2022-12-11T02:54:55;39.73;30.95;54.71;;
58303;Laerm;44109;52.398;7.024;2022-12-11T02:57:30;39.78;30.71;55.25;;
58303;Laerm;44109;52.398;7.024;2022-12-11T03:00:01;39.74;30.86;54.93;;
58303;Laerm;44109;52.398;7.024;2022-12-11T03:02:29;40.56;30.76;58.31;;
58303;Laerm;44109;52.398;7.024;2022-12-11T03:04:58;40.03;30.76;54.54;;
58303;Laerm;44109;52.398;7.024;2022-12-11T03:07:33;40.01;30.83;55.41;;
58303;Laerm;44109;52.398;7.024;2022-12-11T03:10:01;39.88;30.85;55.62;;
58303;Laerm;44109;52.398;7.024;2022-12-11T03:12:33;39.82;30.85;55.68;;
58303;Laerm;44109;52.398;7.024;2022-12-11T03:15:06;39.70;30.69;55.17;;
58303;Laerm;44109;52.398;7.024;2022-12-11T03:17:46;39.81;30.91;55.53;;
58303;Laerm;44109;52.398;7.024;2022-12-11T03:20:32;39.32;30.58;55.66;;
58303;Laerm;44109;52.398;7.024;2022-12-11T03:23:14;39.68;30.85;54.61;;
58303;Laerm;44109;52.398;7.024;2022-12-11T03:25:52;39.84;30.99;55.51;;
58303;Laerm;44109;52.398;7.024;2022-12-11T03:28:28;39.69;30.96;55.36;;
58303;Laerm;44109;52.398;7.024;2022-12-11T03:31:04;40.49;30.75;55.42;;
58303;Laerm;44109;52.398;7.024;2022-12-11T03:33:37;40.51;30.91;54.77;;
58303;Laerm;44109;52.398;7.024;2022-12-11T03:36:11;39.79;30.89;55.51;;
58303;Laerm;44109;52.398;7.024;2022-12-11T03:38:46;39.68;30.93;54.71;;
58303;Laerm;44109;52.398;7.024;2022-12-11T03:41:19;39.95;30.95;55.49;;
58303;Laerm;44109;52.398;7.024;2022-12-11T03:43:51;40.17;30.97;55.58;;
58303;Laerm;44109;52.398;7.024;2022-12-11T03:46:25;40.11;30.99;54.76;;
58303;Laerm;44109;52.398;7.024;2022-12-11T03:48:59;39.97;31.14;55.46;;
58303;Laerm;44109;52.398;7.024;2022-12-11T03:51:30;39.81;30.78;54.71;;
58303;Laerm;44109;52.398;7.024;2022-12-11T03:53:59;40.09;31.09;55.19;;
58303;Laerm;44109;52.398;7.024;2022-12-11T03:56:29;39.94;30.94;55.58;;
58303;Laerm;44109;52.398;7.024;2022-12-11T03:58:58;40.21;31.10;54.61;;
58303;Laerm;44109;52.398;7.024;2022-12-11T04:01:27;40.78;31.15;55.13;;
58303;Laerm;44109;52.398;7.024;2022-12-11T04:03:55;39.97;31.16;54.84;;
58303;Laerm;44109;52.398;7.024;2022-12-11T04:06:22;40.19;31.31;54.88;;
58303;Laerm;44109;52.398;7.024;2022-12-11T04:08:50;40.78;31.13;54.83;;
58303;Laerm;44109;52.398;7.024;2022-12-11T04:11:17;40.42;30.68;54.72;;
58303;Laerm;44109;52.398;7.024;2022-12-11T04:14:07;39.48;30.46;54.76;;
58303;Laerm;44109;52.398;7.024;2022-12-11T04:16:55;39.42;30.89;55.67;;
58303;Laerm;44109;52.398;7.024;2022-12-11T04:19:23;39.98;30.97;54.80;;
58303;Laerm;44109;52.398;7.024;2022-12-11T04:22:09;39.54;30.88;55.57;;
58303;Laerm;44109;52.398;7.024;2022-12-11T04:24:54;39.55;30.65;56.01;;
58303;Laerm;44109;52.398;7.024;2022-12-11T04:27:22;40.10;30.84;54.80;;
58303;Laerm;44109;52.398;7.024;2022-12-11T04:30:12;39.53;30.90;55.62;;
58303;Laerm;44109;52.398;7.024;2022-12-11T04:32:41;39.97;30.95;55.83;;
58303;Laerm;44109;52.398;7.024;2022-12-11T04:35:10;40.20;30.79;54.87;;
58303;Laerm;44109;52.398;7.024;2022-12-11T04:37:38;40.38;31.09;55.09;;
58303;Laerm;44109;52.398;7.024;2022-12-11T04:40:10;40.03;30.93;55.44;;
58303;Laerm;44109;52.398;7.024;2022-12-11T04:42:38;40.52;31.01;55.22;;
58303;Laerm;44109;52.398;7.024;2022-12-11T04:45:08;40.31;31.11;55.28;;
58303;Laerm;44109;52.398;7.024;2022-12-11T04:47:37;40.61;30.96;55.75;;
58303;Laerm;44109;52.398;7.024;2022-12-11T04:50:10;41.39;30.93;55.29;;
58303;Laerm;44109;52.398;7.024;2022-12-11T04:52:38;41.19;30.73;56.06;;
58303;Laerm;44109;52.398;7.024;2022-12-11T04:55:07;40.16;30.83;55.74;;
58303;Laerm;44109;52.398;7.024;2022-12-11T04:57:35;40.20;30.80;55.23;;
58303;Laerm;44109;52.398;7.024;2022-12-11T05:00:04;40.32;30.78;55.96;;
58303;Laerm;44109;52.398;7.024;2022-12-11T05:02:34;40.68;30.92;57.17;;
58303;Laerm;44109;52.398;7.024;2022-12-11T05:05:03;40.31;30.92;56.12;;
58303;Laerm;44109;52.398;7.024;2022-12-11T05:07:32;40.25;30.93;56.23;;
58303;Laerm;44109;52.398;7.024;2022-12-11T05:10:00;40.26;30.95;55.07;;
58303;Laerm;44109;52.398;7.024;2022-12-11T05:12:28;40.86;31.12;56.03;;
58303;Laerm;44109;52.398;7.024;2022-12-11T05:14:55;40.65;31.03;55.61;;
58303;Laerm;44109;52.398;7.024;2022-12-11T05:17:23;40.36;31.11;55.11;;
58303;Laerm;44109;52.398;7.024;2022-12-11T05:19:51;40.32;30.74;55.74;;
58303;Laerm;44109;52.398;7.024;2022-12-11T05:22:18;40.35;30.92;55.73;;
58303;Laerm;44109;52.398;7.024;2022-12-11T05:24:47;40.85;30.74;55.34;;
58303;Laerm;44109;52.398;7.024;2022-12-11T05:27:15;41.65;30.87;56.03;;
58303;Laerm;44109;52.398;7.024;2022-12-11T05:29:42;40.63;30.84;55.57;;
58303;Laerm;44109;52.398;7.024;2022-12-11T05:32:10;40.50;30.97;56.15;;
58303;Laerm;44109;52.398;7.024;2022-12-11T05:34:38;41.11;31.08;55.17;;
58303;Laerm;44109;52.398;7.024;2022-12-11T05:37:05;40.46;31.14;55.20;;
58303;Laerm;44109;52.398;7.024;2022-12-11T05:39:33;40.58;30.97;55.32;;
58303;Laerm;44109;52.398;7.024;2022-12-11T05:42:02;40.81;31.17;56.03;;
58303;Laerm;44109;52.398;7.024;2022-12-11T05:44:30;41.11;31.14;55.34;;
58303;Laerm;44109;52.398;7.024;2022-12-11T05:46:57;41.11;30.99;56.10;;
58303;Laerm;44109;52.398;7.024;2022-12-11T05:49:25;41.31;31.80;55.24;;
58303;Laerm;44109;52.398;7.024;2022-12-11T05:51:52;41.32;31.25;56.25;;
58303;Laerm;44109;52.398;7.024;2022-12-11T05:54:20;41.12;31.02;55.28;;
58303;Laerm;44109;52.398;7.024;2022-12-11T05:56:49;40.57;30.87;55.94;;
58303;Laerm;44109;52.398;7.024;2022-12-11T05:59:18;41.60;31.09;56.04;;
58303;Laerm;44109;52.398;7.024;2022-12-11T06:01:46;41.62;31.68;60.33;;
58303;Laerm;44109;52.398;7.024;2022-12-11T06:04:13;40.50;31.19;55.85;;
58303;Laerm;44109;52.398;7.024;2022-12-11T06:06:41;40.55;31.19;56.06;;
58303;Laerm;44109;52.398;7.024;2022-12-11T06:09:13;40.83;31.13;55.58;;
58303;Laerm;44109;52.398;7.024;2022-12-11T06:11:40;41.52;31.31;55.63;;
58303;Laerm;44109;52.398;7.024;2022-12-11T06:14:10;40.98;31.43;56.20;;
58303;Laerm;44109;52.398;7.024;2022-12-11T06:16:40;41.07;31.18;56.02;;
58303;Laerm;44109;52.398;7.024;2022-12-11T06:19:13;44.79;31.85;57.67;;
58303;Laerm;44109;52.398;7.024;2022-12-11T06:21:41;41.22;31.73;56.22;;
58303;Laerm;44109;52.398;7.024;2022-12-11T06:24:09;41.68;31.99;57.53;;
58303;Laerm;44109;52.398;7.024;2022-12-11T06:26:37;41.33;31.38;57.62;;
58303;Laerm;44109;52.398;7.024;2022-12-11T06:29:05;40.69;30.94;55.03;;
58303;Laerm;44109;52.398;7.024;2022-12-11T06:31:33;44.43;31.59;58.12;;
58303;Laerm;44109;52.398;7.024;2022-12-11T06:34:02;40.83;31.36;55.93;;
58303;Laerm;44109;52.398;7.024;2022-12-11T06:36:29;40.86;31.49;55.46;;
58303;Laerm;44109;52.398;7.024;2022-12-11T06:38:57;40.97;31.20;55.80;;
58303;Laerm;44109;52.398;7.024;2022-12-11T06:41:24;40.78;31.23;55.72;;
58303;Laerm;44109;52.398;7.024;2022-12-11T06:43:52;41.01;31.20;55.26;;
58303;Laerm;44109;52.398;7.024;2022-12-11T06:46:20;41.53;31.66;56.38;;
58303;Laerm;44109;52.398;7.024;2022-12-11T06:48:47;42.02;31.96;56.09;;
58303;Laerm;44109;52.398;7.024;2022-12-11T06:51:20;42.98;32.21;55.70;;
58303;Laerm;44109;52.398;7.024;2022-12-11T06:53:51;41.62;31.22;56.03;;
58303;Laerm;44109;52.398;7.024;2022-12-11T06:56:20;41.51;31.00;56.40;;
58303;Laerm;44109;52.398;7.024;2022-12-11T06:58:48;43.60;31.62;64.42;;
58303;Laerm;44109;52.398;7.024;2022-12-11T07:01:20;41.96;31.75;56.65;;
58303;Laerm;44109;52.398;7.024;2022-12-11T07:03:50;41.78;32.03;56.48;;
58303;Laerm;44109;52.398;7.024;2022-12-11T07:06:20;41.41;31.73;55.80;;
58303;Laerm;44109;52.398;7.024;2022-12-11T07:08:48;42.06;31.92;55.76;;
58303;Laerm;44109;52.398;7.024;2022-12-11T07:11:17;42.94;31.64;58.15;;
58303;Laerm;44109;52.398;7.024;2022-12-11T07:13:46;42.10;32.35;56.56;;
58303;Laerm;44109;52.398;7.024;2022-12-11T07:16:16;41.96;32.23;56.84;;
58303;Laerm;44109;52.398;7.024;2022-12-11T07:18:47;42.23;32.29;56.69;;
58303;Laerm;44109;52.398;7.024;2022-12-11T07:21:16;42.84;32.28;55.73;;
58303;Laerm;44109;52.398;7.024;2022-12-11T07:23:47;42.04;31.96;62.43;;
58303;Laerm;44109;52.398;7.024;2022-12-11T07:26:17;42.37;32.06;55.78;;
58303;Laerm;44109;52.398;7.024;2022-12-11T07:28:46;42.78;32.07;55.87;;
58303;Laerm;44109;52.398;7.024;2022-12-11T07:31:17;45.13;32.84;61.34;;
58303;Laerm;44109;52.398;7.024;2022-12-11T07:33:46;43.15;32.27;56.72;;
58303;Laerm;44109;52.398;7.024;2022-12-11T07:36:14;43.78;33.29;57.80;;
58303;Laerm;44109;52.398;7.024;2022-12-11T07:38:42;43.07;33.31;56.64;;
58303;Laerm;44109;52.398;7.024;2022-12-11T07:41:13;43.38;33.77;56.94;;
58303;Laerm;44109;52.398;7.024;2022-12-11T07:43:42;44.08;33.80;56.63;;
58303;Laerm;44109;52.398;7.024;2022-12-11T07:46:13;44.75;33.40;57.52;;
58303;Laerm;44109;52.398;7.024;2022-12-11T07:48:44;46.53;34.47;62.12;;
58303;Laerm;44109;52.398;7.024;2022-12-11T07:51:15;46.84;35.78;61.66;;
58303;Laerm;44109;52.398;7.024;2022-12-11T07:53:44;44.65;35.21;56.71;;
58303;Laerm;44109;52.398;7.024;2022-12-11T07:56:14;45.84;37.43;56.40;;
58303;Laerm;44109;52.398;7.024;2022-12-11T07:58:42;50.26;34.85;61.52;;
58303;Laerm;44109;52.398;7.024;2022-12-11T08:01:11;49.57;34.62;63.44;;
58303;Laerm;44109;52.398;7.024;2022-12-11T08:03:39;46.76;35.03;65.49;;
58303;Laerm;44109;52.398;7.024;2022-12-11T08:06:09;43.96;35.62;63.19;;
58303;Laerm;44109;52.398;7.024;2022-12-11T08:08:38;45.33;35.90;59.03;;
58303;Laerm;44109;52.398;7.024;2022-12-11T08:11:09;54.93;33.22;73.23;;
58303;Laerm;44109;52.398;7.024;2022-12-11T08:13:40;51.66;35.19;83.52;;
58303;Laerm;44109;52.398;7.024;2022-12-11T08:16:10;44.65;36.70;65.87;;
58303;Laerm;44109;52.398;7.024;2022-12-11T08:18:40;44.48;35.11;57.24;;
58303;Laerm;44109;52.398;7.024;2022-12-11T08:21:12;44.02;35.84;57.11;;
58303;Laerm;44109;52.398;7.024;2022-12-11T08:23:40;44.93;34.49;57.91;;
58303;Laerm;44109;52.398;7.024;2022-12-11T08:26:11;44.54;35.04;57.00;;
58303;Laerm;44109;52.398;7.024;2022-12-11T08:28:41;45.93;35.26;62.74;;
58303;Laerm;44109;52.398;7.024;2022-12-11T08:31:11;47.31;35.95;68.34;;
58303;Laerm;44109;52.398;7.024;2022-12-11T08:33:40;50.89;35.51;75.42;;
58303;Laerm;44109;52.398;7.024;2022-12-11T08:36:12;46.85;36.28;67.79;;
58303;Laerm;44109;52.398;7.024;2022-12-11T08:38:40;51.23;36.27;76.35;;
58303;Laerm;44109;52.398;7.024;2022-12-11T08:41:09;43.77;34.63;58.02;;
58303;Laerm;44109;52.398;7.024;2022-12-11T08:43:38;45.50;35.23;56.69;;
58303;Laerm;44109;52.398;7.024;2022-12-11T08:46:07;44.62;35.64;57.73;;
58303;Laerm;44109;52.398;7.024;2022-12-11T08:48:38;45.04;36.88;63.83;;
58303;Laerm;44109;52.398;7.024;2022-12-11T08:51:09;44.97;35.85;57.58;;
58303;Laerm;44109;52.398;7.024;2022-12-11T08:53:38;43.96;34.69;57.07;;
58303;Laerm;44109;52.398;7.024;2022-12-11T08:56:09;44.54;37.08;56.58;;
58303;Laerm;44109;52.398;7.024;2022-12-11T08:58:37;45.14;35.56;56.97;;
58303;Laerm;44109;52.398;7.024;2022-12-11T09:01:08;44.32;34.90;57.85;;
58303;Laerm;44109;52.398;7.024;2022-12-11T09:03:38;46.30;35.88;59.08;;
58303;Laerm;44109;52.398;7.024;2022-12-11T09:06:09;45.14;35.78;67.30;;
58303;Laerm;44109;52.398;7.024;2022-12-11T09:08:38;44.98;35.21;59.43;;
58303;Laerm;44109;52.398;7.024;2022-12-11T09:11:09;44.58;34.75;58.06;;
58303;Laerm;44109;52.398;7.024;2022-12-11T09:13:39;44.72;37.04;56.55;;
58303;Laerm;44109;52.398;7.024;2022-12-11T09:16:11;47.30;35.86;65.28;;
58303;Laerm;44109;52.398;7.024;2022-12-11T09:18:39;45.15;36.99;58.71;;
58303;Laerm;44109;52.398;7.024;2022-12-11T09:21:10;45.35;37.69;60.43;;
58303;Laerm;44109;52.398;7.024;2022-12-11T09:23:39;45.57;37.89;57.49;;
58303;Laerm;44109;52.398;7.024;2022-12-11T09:26:09;45.94;37.42;57.56;;
58303;Laerm;44109;52.398;7.024;2022-12-11T09:28:39;46.40;35.42;63.32;;
58303;Laerm;44109;52.398;7.024;2022-12-11T09:31:10;44.72;36.95;57.63;;
58303;Laerm;44109;52.398;7.024;2022-12-11T09:33:38;44.86;37.38;56.87;;
58303;Laerm;44109;52.398;7.024;2022-12-11T09:36:07;45.68;37.92;61.29;;
58303;Laerm;44109;52.398;7.024;2022-12-11T09:38:35;44.60;36.28;57.76;;
58303;Laerm;44109;52.398;7.024;2022-12-11T09:41:36;45.65;35.92;72.40;;
58303;Laerm;44109;52.398;7.024;2022-12-11T09:44:36;45.13;37.57;62.64;;
58303;Laerm;44109;52.398;7.024;2022-12-11T09:47:20;44.76;37.17;63.02;;
58303;Laerm;44109;52.398;7.024;2022-12-11T09:49:56;45.55;37.17;57.96;;
58303;Laerm;44109;52.398;7.024;2022-12-11T09:52:34;45.84;36.67;64.64;;
58303;Laerm;44109;52.398;7.024;2022-12-11T09:55:13;45.26;37.84;63.57;;
58303;Laerm;44109;52.398;7.024;2022-12-11T09:57:52;45.60;36.73;64.28;;
58303;Laerm;44109;52.398;7.024;2022-12-11T10:00:30;45.40;37.53;57.63;;
58303;Laerm;44109;52.398;7.024;2022-12-11T10:03:37;44.41;35.96;57.87;;
58303;Laerm;44109;52.398;7.024;2022-12-11T10:06:16;45.12;37.58;57.82;;
58303;Laerm;44109;52.398;7.024;2022-12-11T10:09:02;45.52;37.95;57.70;;
58303;Laerm;44109;52.398;7.024;2022-12-11T10:11:55;45.56;37.13;65.14;;
58303;Laerm;44109;52.398;7.024;2022-12-11T10:14:38;45.76;37.37;61.96;;
58303;Laerm;44109;52.398;7.024;2022-12-11T10:17:16;45.50;37.45;56.91;;
58303;Laerm;44109;52.398;7.024;2022-12-11T10:19:48;49.31;37.21;64.08;;
58303;Laerm;44109;52.398;7.024;2022-12-11T10:22:22;50.07;38.29;72.18;;
58303;Laerm;44109;52.398;7.024;2022-12-11T10:24:55;45.81;37.02;60.44;;
58303;Laerm;44109;52.398;7.024;2022-12-11T10:27:27;51.31;38.66;73.54;;
58303;Laerm;44109;52.398;7.024;2022-12-11T10:30:06;46.95;38.43;65.57;;
58303;Laerm;44109;52.398;7.024;2022-12-11T10:32:49;47.73;38.36;65.08;;
58303;Laerm;44109;52.398;7.024;2022-12-11T10:35:32;45.32;36.95;57.94;;
58303;Laerm;44109;52.398;7.024;2022-12-11T10:38:12;45.64;39.14;59.03;;
58303;Laerm;44109;52.398;7.024;2022-12-11T10:40:45;46.42;38.20;61.76;;
58303;Laerm;44109;52.398;7.024;2022-12-11T10:43:12;47.21;39.71;59.53;;
58303;Laerm;44109;52.398;7.024;2022-12-11T10:45:50;45.84;35.50;58.63;;
58303;Laerm;44109;52.398;7.024;2022-12-11T10:48:18;46.23;39.97;57.28;;
58303;Laerm;44109;52.398;7.024;2022-12-11T10:50:58;45.95;38.25;62.63;;
58303;Laerm;44109;52.398;7.024;2022-12-11T10:53:28;46.85;37.77;58.19;;
58303;Laerm;44109;52.398;7.024;2022-12-11T10:55:56;47.52;38.73;59.33;;
58303;Laerm;44109;52.398;7.024;2022-12-11T10:58:28;45.53;37.16;61.44;;
58303;Laerm;44109;52.398;7.024;2022-12-11T11:01:06;45.38;36.42;58.34;;
58303;Laerm;44109;52.398;7.024;2022-12-11T11:03:42;46.84;37.93;72.64;;
58303;Laerm;44109;52.398;7.024;2022-12-11T11:06:21;46.24;37.10;58.71;;
58303;Laerm;44109;52.398;7.024;2022-12-11T11:08:52;46.09;39.11;64.50;;
58303;Laerm;44109;52.398;7.024;2022-12-11T11:11:25;49.23;37.50;67.44;;
58303;Laerm;44109;52.398;7.024;2022-12-11T11:14:12;47.34;38.46;68.48;;
58303;Laerm;44109;52.398;7.024;2022-12-11T11:16:44;46.04;38.23;61.88;;
58303;Laerm;44109;52.398;7.024;2022-12-11T11:19:23;45.38;37.10;68.19;;
58303;Laerm;44109;52.398;7.024;2022-12-11T11:21:56;47.05;39.13;70.92;;
58303;Laerm;44109;52.398;7.024;2022-12-11T11:24:30;46.40;40.31;60.27;;
58303;Laerm;44109;52.398;7.024;2022-12-11T11:26:59;46.15;39.65;61.57;;
58303;Laerm;44109;52.398;7.024;2022-12-11T11:29:31;46.00;38.61;67.48;;
58303;Laerm;44109;52.398;7.024;2022-12-11T11:32:14;51.77;38.10;79.56;;
58303;Laerm;44109;52.398;7.024;2022-12-11T11:34:43;45.57;37.63;61.87;;
58303;Laerm;44109;52.398;7.024;2022-12-11T11:37:24;46.16;39.20;59.46;;
58303;Laerm;44109;52.398;7.024;2022-12-11T11:40:07;47.08;39.29;59.32;;
58303;Laerm;44109;52.398;7.024;2022-12-11T11:42:48;47.75;39.99;60.39;;
58303;Laerm;44109;52.398;7.024;2022-12-11T11:45:25;46.95;39.64;59.83;;
58303;Laerm;44109;52.398;7.024;2022-12-11T11:48:06;48.51;37.21;77.17;;
58303;Laerm;44109;52.398;7.024;2022-12-11T11:50:44;46.94;39.60;60.11;;
58303;Laerm;44109;52.398;7.024;2022-12-11T11:53:26;48.51;40.62;65.98;;
58303;Laerm;44109;52.398;7.024;2022-12-11T11:56:11;48.17;38.51;65.26;;
58303;Laerm;44109;52.398;7.024;2022-12-11T11:58:47;48.25;40.11;72.38;;
58303;Laerm;44109;52.398;7.024;2022-12-11T12:01:19;46.97;40.13;63.15;;
58303;Laerm;44109;52.398;7.024;2022-12-11T12:03:48;45.81;38.24;62.78;;
58303;Laerm;44109;52.398;7.024;2022-12-11T12:06:32;46.15;39.43;58.10;;
58303;Laerm;44109;52.398;7.024;2022-12-11T12:09:18;46.64;39.41;59.14;;
58303;Laerm;44109;52.398;7.024;2022-12-11T12:12:12;48.17;38.62;69.26;;
58303;Laerm;44109;52.398;7.024;2022-12-11T12:15:00;47.01;39.14;59.71;;
58303;Laerm;44109;52.398;7.024;2022-12-11T12:17:46;47.49;40.51;69.45;;
58303;Laerm;44109;52.398;7.024;2022-12-11T12:20:26;46.70;38.85;67.41;;
58303;Laerm;44109;52.398;7.024;2022-12-11T12:23:12;46.83;37.83;58.95;;
58303;Laerm;44109;52.398;7.024;2022-12-11T12:25:53;46.69;38.22;62.38;;
58303;Laerm;44109;52.398;7.024;2022-12-11T12:28:38;45.97;38.53;61.29;;
58303;Laerm;44109;52.398;7.024;2022-12-11T12:31:24;50.40;38.37;76.87;;
58303;Laerm;44109;52.398;7.024;2022-12-11T12:34:09;46.81;39.06;73.22;;
58303;Laerm;44109;52.398;7.024;2022-12-11T12:36:52;45.61;38.16;57.65;;
58303;Laerm;44109;52.398;7.024;2022-12-11T12:39:32;49.62;40.49;76.55;;
58303;Laerm;44109;52.398;7.024;2022-12-11T12:42:12;46.31;38.25;56.82;;
58303;Laerm;44109;52.398;7.024;2022-12-11T12:44:52;47.15;39.83;59.34;;
58303;Laerm;44109;52.398;7.024;2022-12-11T12:47:27;46.34;39.31;57.53;;
58303;Laerm;44109;52.398;7.024;2022-12-11T12:49:58;46.49;39.15;60.52;;
58303;Laerm;44109;52.398;7.024;2022-12-11T12:52:31;45.00;37.98;57.02;;
58303;Laerm;44109;52.398;7.024;2022-12-11T12:55:12;47.15;38.31;62.42;;
58303;Laerm;44109;52.398;7.024;2022-12-11T12:57:52;48.27;41.40;57.44;;
58303;Laerm;44109;52.398;7.024;2022-12-11T13:00:31;45.73;38.54;57.55;;
58303;Laerm;44109;52.398;7.024;2022-12-11T13:03:10;45.67;38.05;60.93;;
58303;Laerm;44109;52.398;7.024;2022-12-11T13:05:42;46.21;37.49;64.93;;
58303;Laerm;44109;52.398;7.024;2022-12-11T13:08:11;46.64;40.14;58.26;;
58303;Laerm;44109;52.398;7.024;2022-12-11T13:10:42;48.56;39.54;60.40;;
58303;Laerm;44109;52.398;7.024;2022-12-11T13:13:36;50.16;36.98;77.34;;
58303;Laerm;44109;52.398;7.024;2022-12-11T13:16:24;46.31;38.06;64.90;;
58303;Laerm;44109;52.398;7.024;2022-12-11T13:18:52;46.29;37.91;58.50;;
58303;Laerm;44109;52.398;7.024;2022-12-11T13:21:30;47.01;37.06;61.24;;
58303;Laerm;44109;52.398;7.024;2022-12-11T13:24:16;44.86;37.59;56.74;;
58303;Laerm;44109;52.398;7.024;2022-12-11T13:26:51;49.79;37.61;79.06;;
58303;Laerm;44109;52.398;7.024;2022-12-11T13:29:33;45.54;37.84;60.20;;
58303;Laerm;44109;52.398;7.024;2022-12-11T13:32:18;44.77;36.73;60.82;;
58303;Laerm;44109;52.398;7.024;2022-12-11T13:34:53;44.34;37.27;64.40;;
58303;Laerm;44109;52.398;7.024;2022-12-11T13:37:27;44.05;35.04;56.61;;
58303;Laerm;44109;52.398;7.024;2022-12-11T13:39:57;43.95;36.11;57.19;;
58303;Laerm;44109;52.398;7.024;2022-12-11T13:42:32;47.61;36.32;70.59;;
58303;Laerm;44109;52.398;7.024;2022-12-11T13:45:03;46.55;39.30;57.42;;
58303;Laerm;44109;52.398;7.024;2022-12-11T13:47:34;45.11;37.58;57.17;;
58303;Laerm;44109;52.398;7.024;2022-12-11T13:50:14;45.35;37.17;57.52;;
58303;Laerm;44109;52.398;7.024;2022-12-11T13:52:52;46.26;38.89;68.85;;
58303;Laerm;44109;52.398;7.024;2022-12-11T13:55:24;44.89;38.43;57.53;;
58303;Laerm;44109;52.398;7.024;2022-12-11T13:57:53;46.19;39.11;62.05;;
58303;Laerm;44109;52.398;7.024;2022-12-11T14:00:25;46.16;37.52;58.86;;
58303;Laerm;44109;52.398;7.024;2022-12-11T14:02:56;44.41;35.31;57.18;;
58303;Laerm;44109;52.398;7.024;2022-12-11T14:05:26;47.23;37.44;74.75;;
58303;Laerm;44109;52.398;7.024;2022-12-11T14:07:57;45.26;35.69;57.67;;
58303;Laerm;44109;52.398;7.024;2022-12-11T14:10:29;46.37;38.28;64.80;;
58303;Laerm;44109;52.398;7.024;2022-12-11T14:13:01;49.30;37.25;72.51;;
58303;Laerm;44109;52.398;7.024;2022-12-11T14:15:34;44.14;35.86;57.01;;
58303;Laerm;44109;52.398;7.024;2022-12-11T14:18:04;41.87;37.58;56.28;;
58303;Laerm;44109;52.398;7.024;2022-12-11T14:20:33;44.85;36.44;61.86;;
58303;Laerm;44109;52.398;7.024;2022-12-11T14:23:05;45.35;37.62;58.03;;